Time;durP1;ratioP1;P1;durP2;ratioP2;P2;SDS_P1;SDS_P2;PMS_P1;PMS_P2;Temp;Humidity;BMP_temperature;BMP_pressure;BME280_temperature;BME280_humidity;BME280_pressure;Samples;Min_cycle;Max_cycle;Signal;HPM_P1;HPM_P2
2023/03/08 00:00:48;;;;;;;35.87;22.80;;;;;;;9.24;78.06;98731.84;5054168;28;20188;-70
2023/03/08 00:03:15;;;;;;;35.63;22.50;;;;;;;9.02;79.06;98735.72;5054822;28;20254;-69
2023/03/08 00:05:42;;;;;;;33.77;22.43;;;;;;;8.90;80.00;98740.84;5054456;28;20624;-69
2023/03/08 00:08:09;;;;;;;35.17;21.43;;;;;;;8.82;80.00;98738.38;5054472;28;20238;-70
2023/03/08 00:10:37;;;;;;;31.47;21.30;;;;;;;8.82;79.92;98732.28;5054362;28;20196;-71
2023/03/08 00:13:05;;;;;;;31.10;21.40;;;;;;;8.76;79.92;98743.69;5054058;28;20251;-71
2023/03/08 00:15:31;;;;;;;33.03;22.63;;;;;;;8.64;80.69;98734.69;5054215;28;20253;-71
2023/03/08 00:17:58;;;;;;;37.43;22.73;;;;;;;8.63;81.14;98735.72;5054264;28;20192;-72
2023/03/08 00:20:25;;;;;;;37.37;22.77;;;;;;;8.67;80.51;98740.44;5068193;28;20204;-72
2023/03/08 00:22:51;;;;;;;29.20;21.70;;;;;;;8.69;80.52;98738.38;5073907;28;20777;-71
2023/03/08 00:25:18;;;;;;;38.67;22.53;;;;;;;8.61;80.78;98740.38;5074385;28;20254;-70
2023/03/08 00:27:45;;;;;;;32.83;22.20;;;;;;;8.68;81.53;98746.53;5074003;28;20199;-70
2023/03/08 00:30:14;;;;;;;35.10;21.90;;;;;;;8.69;81.24;98737.56;5073811;28;20629;-70
2023/03/08 00:32:41;;;;;;;33.73;21.70;;;;;;;8.64;80.18;98732.88;5071908;28;20195;-70
2023/03/08 00:35:09;;;;;;;33.27;22.43;;;;;;;8.64;81.12;98743.47;5053587;28;20216;-71
2023/03/08 00:37:35;;;;;;;33.13;21.83;;;;;;;8.60;81.32;98739.59;5053458;28;20329;-70
2023/03/08 00:40:04;;;;;;;34.47;24.33;;;;;;;8.50;81.02;98733.88;5053561;28;20575;-71
2023/03/08 00:42:31;;;;;;;37.37;23.40;;;;;;;8.48;81.07;98737.72;5053729;28;20193;-71
2023/03/08 00:44:57;;;;;;;32.33;21.43;;;;;;;8.39;81.73;98736.28;5071058;28;20683;-71
2023/03/08 00:47:25;;;;;;;30.43;21.37;;;;;;;8.31;81.86;98733.84;5074046;28;20200;-70
2023/03/08 00:49:52;;;;;;;37.90;21.60;;;;;;;8.27;82.14;98725.50;5073695;28;20188;-70
2023/03/08 00:52:19;;;;;;;32.03;21.03;;;;;;;8.08;81.54;98717.47;5072114;28;20652;-71
2023/03/08 00:54:45;;;;;;;32.00;20.30;;;;;;;8.20;81.56;98737.00;5065130;28;20228;-70
2023/03/08 00:57:12;;;;;;;34.03;20.90;;;;;;;8.22;81.32;98741.16;5053544;28;20253;-70
2023/03/08 00:59:39;;;;;;;31.67;21.43;;;;;;;8.21;80.64;98733.41;5053431;28;20224;-70
2023/03/08 01:02:06;;;;;;;33.40;20.73;;;;;;;8.20;81.66;98734.38;5064994;28;20194;-70
2023/03/08 01:04:34;;;;;;;29.53;20.33;;;;;;;8.21;81.42;98738.69;5073301;28;20195;-70
2023/03/08 01:07:01;;;;;;;31.13;22.23;;;;;;;8.16;80.53;98735.78;5073272;28;20193;-69
2023/03/08 01:09:28;;;;;;;38.27;21.73;;;;;;;8.10;81.56;98731.31;5072991;28;20192;-70
2023/03/08 01:11:54;;;;;;;31.80;22.57;;;;;;;8.02;81.88;98734.94;5073173;28;20188;-70
2023/03/08 01:14:21;;;;;;;39.17;22.37;;;;;;;7.91;81.92;98737.31;5056045;28;20196;-70
2023/03/08 01:16:48;;;;;;;37.53;22.60;;;;;;;7.87;82.76;98725.50;5053090;28;20192;-70
2023/03/08 01:19:14;;;;;;;38.03;22.73;;;;;;;7.89;82.79;98728.78;5052246;28;20273;-70
2023/03/08 01:21:42;;;;;;;36.23;22.80;;;;;;;7.92;82.01;98731.03;5053010;28;20204;-70
2023/03/08 01:24:09;;;;;;;34.30;22.47;;;;;;;7.93;81.16;98728.19;5053377;28;20246;-70
2023/03/08 01:26:36;;;;;;;37.70;21.87;;;;;;;7.92;81.74;98733.69;5069068;28;20210;-70
2023/03/08 01:29:02;;;;;;;33.50;23.00;;;;;;;7.92;81.69;98738.97;5072592;28;20218;-69
2023/03/08 01:31:30;;;;;;;37.90;23.63;;;;;;;7.91;81.91;98734.69;5072513;28;20661;-68
2023/03/08 01:33:58;;;;;;;34.47;23.37;;;;;;;7.93;81.76;98737.97;5072772;28;20268;-69
2023/03/08 01:36:27;;;;;;;43.33;24.07;;;;;;;7.85;82.11;98738.97;5072263;28;20694;-70
2023/03/08 01:38:55;;;;;;;34.07;22.47;;;;;;;7.69;83.24;98733.16;5068948;28;20242;-70
2023/03/08 01:41:24;;;;;;;37.57;23.23;;;;;;;7.67;83.58;98735.22;5052695;28;20246;-69
2023/03/08 01:43:51;;;;;;;37.13;22.40;;;;;;;7.57;84.55;98729.44;5052372;28;20619;-69
2023/03/08 01:46:24;;;;;;;30.90;21.57;;;;;;;7.51;84.17;98733.69;5052525;28;20577;-69
2023/03/08 01:48:55;;;;;;;28.43;20.30;;;;;;;7.47;84.12;98739.56;5052379;28;20214;-71
2023/03/08 01:51:28;;;;;;;29.80;20.43;;;;;;;7.44;83.79;98740.78;5071337;28;20246;-71
2023/03/08 01:53:59;;;;;;;32.90;21.57;;;;;;;7.34;85.05;98740.28;5072219;28;20246;-70
2023/03/08 01:56:27;;;;;;;31.87;21.23;;;;;;;7.39;85.94;98742.38;5069523;28;20206;-70
2023/03/08 01:58:55;;;;;;;29.97;21.00;;;;;;;7.38;84.91;98751.28;5060407;28;20224;-71
2023/03/08 02:01:22;;;;;;;30.53;20.63;;;;;;;7.40;84.69;98746.63;5055143;28;20249;-70
2023/03/08 02:03:49;;;;;;;34.37;22.07;;;;;;;7.43;83.83;98743.59;5071920;28;20646;-70
2023/03/08 02:06:19;;;;;;;28.53;19.83;;;;;;;7.42;84.10;98749.88;5072326;28;20199;-70
2023/03/08 02:08:46;;;;;;;28.73;20.17;;;;;;;7.39;84.93;98747.66;5071776;28;20561;-70
2023/03/08 02:11:17;;;;;;;26.57;20.17;;;;;;;7.31;84.44;98739.88;5071988;28;20238;-71
2023/03/08 02:13:44;;;;;;;33.20;20.20;;;;;;;7.32;84.48;98739.69;5067276;28;20258;-71
2023/03/08 02:16:14;;;;;;;31.50;20.30;;;;;;;7.32;83.79;98736.22;5051595;28;20692;-71
2023/03/08 02:18:50;;;;;;;37.70;21.23;;;;;;;7.28;84.34;98742.91;5051691;28;20192;-71
2023/03/08 02:21:17;;;;;;;29.13;18.90;;;;;;;7.19;84.74;98736.13;5052395;28;20192;-72
2023/03/08 02:23:45;;;;;;;23.80;17.83;;;;;;;7.11;84.99;98739.72;5051928;28;20208;-71
2023/03/08 02:26:12;;;;;;;31.30;18.27;;;;;;;6.96;84.79;98740.81;5052225;28;20200;-70
2023/03/08 02:28:39;;;;;;;27.97;19.27;;;;;;;6.95;84.92;98739.19;5051590;28;20219;-69
2023/03/08 02:31:06;;;;;;;30.83;19.47;;;;;;;6.97;84.51;98732.72;5052040;28;20250;-69
2023/03/08 02:33:33;;;;;;;28.50;19.40;;;;;;;6.96;85.71;98744.28;5051602;28;20196;-69
2023/03/08 02:36:01;;;;;;;27.60;19.70;;;;;;;6.86;85.74;98748.28;5051892;28;20217;-70
2023/03/08 02:38:28;;;;;;;30.37;18.20;;;;;;;6.72;85.15;98755.25;5052540;28;20620;-70
2023/03/08 02:40:57;;;;;;;27.17;19.70;;;;;;;6.59;85.29;98755.13;5051954;28;20246;-70
2023/03/08 02:43:23;;;;;;;26.57;19.43;;;;;;;6.61;86.40;98773.41;5051781;28;20193;-70
2023/03/08 02:45:50;;;;;;;27.17;19.47;;;;;;;6.58;85.69;98763.25;5054279;28;20760;-70
2023/03/08 02:48:17;;;;;;;31.23;18.70;;;;;;;6.54;85.46;98760.16;5071898;28;20325;-70
2023/03/08 02:50:44;;;;;;;27.53;17.20;;;;;;;6.57;84.92;98762.41;5072130;28;20197;-70
2023/03/08 02:53:11;;;;;;;31.33;19.17;;;;;;;6.43;84.64;98736.09;5071672;28;20726;-70
2023/03/08 02:55:38;;;;;;;26.43;19.00;;;;;;;6.59;84.77;98764.88;5071319;28;20277;-70
2023/03/08 02:58:07;;;;;;;26.13;18.70;;;;;;;6.60;85.09;98753.28;5066977;28;20661;-70
2023/03/08 03:00:35;;;;;;;25.10;18.33;;;;;;;6.48;85.02;98734.53;5051994;28;20186;-70
2023/03/08 03:03:02;;;;;;;26.47;19.00;;;;;;;6.67;84.38;98764.75;5051622;28;20297;-69
2023/03/08 03:05:28;;;;;;;31.10;18.87;;;;;;;6.68;84.68;98774.28;5062134;28;20196;-69
2023/03/08 03:07:57;;;;;;;27.47;18.93;;;;;;;6.69;84.52;98770.66;5071402;28;20192;-69
2023/03/08 03:10:24;;;;;;;34.70;19.50;;;;;;;6.62;84.31;98767.13;5075228;28;20671;-69
2023/03/08 03:12:50;;;;;;;27.63;18.67;;;;;;;6.52;84.85;98769.25;5075510;28;20190;-69
2023/03/08 03:15:19;;;;;;;30.90;19.43;;;;;;;6.44;85.53;98774.66;5065524;28;20272;-69
2023/03/08 03:17:45;;;;;;;27.20;18.10;;;;;;;6.41;86.16;98767.13;5055381;28;20197;-69
2023/03/08 03:20:13;;;;;;;27.40;18.13;;;;;;;6.46;85.76;98770.84;5055843;28;20201;-69
2023/03/08 03:22:40;;;;;;;29.60;18.73;;;;;;;6.55;85.54;98776.78;5055263;28;20292;-69
2023/03/08 03:25:07;;;;;;;30.50;18.23;;;;;;;6.59;85.50;98780.69;5055441;28;20189;-69
2023/03/08 03:27:34;;;;;;;30.10;18.97;;;;;;;6.61;84.51;98773.41;5055187;28;20192;-69
2023/03/08 03:30:01;;;;;;;31.90;20.10;;;;;;;6.58;85.63;98774.63;5054922;28;20319;-69
2023/03/08 03:32:29;;;;;;;23.90;18.73;;;;;;;6.50;85.67;98756.28;5054806;28;20196;-70
2023/03/08 03:34:55;;;;;;;28.70;18.70;;;;;;;6.54;84.96;98768.09;5054767;28;20200;-69
2023/03/08 03:37:22;;;;;;;26.13;17.73;;;;;;;6.62;84.06;98775.84;5054406;28;20731;-70
2023/03/08 03:39:49;;;;;;;31.63;18.50;;;;;;;6.48;84.40;98783.81;5067156;28;20191;-70
2023/03/08 03:42:16;;;;;;;41.00;19.53;;;;;;;6.36;83.86;98785.34;5069726;28;20193;-70
2023/03/08 03:44:43;;;;;;;49.93;19.00;;;;;;;6.25;84.15;98796.34;5051597;28;20190;-69
2023/03/08 03:47:09;;;;;;;66.07;19.37;;;;;;;6.30;84.94;98791.34;5074611;28;20209;-70
2023/03/08 03:49:37;;;;;;;69.47;21.30;;;;;;;6.33;84.65;98791.78;5074409;28;20279;-70
2023/03/08 03:52:05;;;;;;;59.13;19.23;;;;;;;6.34;84.38;98803.97;5072014;28;20193;-70
2023/03/08 03:54:31;;;;;;;59.93;21.97;;;;;;;6.27;84.60;98807.53;5054760;28;20255;-70
2023/03/08 03:56:59;;;;;;;36.67;19.23;;;;;;;6.26;84.68;98803.25;5054546;28;20233;-70
2023/03/08 03:59:26;;;;;;;40.03;19.90;;;;;;;6.26;83.75;98808.53;5054845;28;20221;-70
2023/03/08 04:01:52;;;;;;;39.07;18.80;;;;;;;6.26;83.35;98811.16;5054615;28;20192;-71
2023/03/08 04:04:19;;;;;;;53.53;19.97;;;;;;;6.18;84.30;98803.38;5054134;28;20250;-70
2023/03/08 04:06:48;;;;;;;45.83;18.93;;;;;;;6.19;84.53;98810.28;5054173;28;20247;-70
2023/03/08 04:09:16;;;;;;;30.63;18.70;;;;;;;6.09;84.18;98820.28;5054377;28;20189;-69
2023/03/08 04:11:43;;;;;;;26.97;17.03;;;;;;;5.89;85.45;98811.31;5054101;28;20194;-69
2023/03/08 04:14:11;;;;;;;26.97;17.20;;;;;;;5.84;86.24;98821.59;5054341;28;20264;-69
2023/03/08 04:16:38;;;;;;;27.50;17.40;;;;;;;5.85;86.46;98817.94;5053982;28;20220;-70
2023/03/08 04:19:07;;;;;;;32.43;17.73;;;;;;;5.81;86.77;98814.03;5057934;28;20238;-70
2023/03/08 04:21:35;;;;;;;24.83;16.97;;;;;;;5.73;86.59;98826.28;5072992;28;20712;-71
2023/03/08 04:24:03;;;;;;;23.33;16.90;;;;;;;5.56;86.79;98818.75;5074145;28;20631;-70
2023/03/08 04:26:31;;;;;;;25.37;16.70;;;;;;;5.58;87.14;98825.47;5073835;28;20252;-71
2023/03/08 04:28:58;;;;;;;22.03;16.43;;;;;;;5.63;87.68;98830.16;5071828;28;20202;-70
2023/03/08 04:31:27;;;;;;;24.07;15.43;;;;;;;5.29;87.70;98764.06;5061905;28;20253;-75
2023/03/08 04:33:54;;;;;;;21.20;15.50;;;;;;;5.66;87.55;98821.91;5073940;28;20196;-75
2023/03/08 04:36:22;;;;;;;27.63;17.60;;;;;;;5.82;87.42;98832.31;5073867;28;20273;-74
2023/03/08 04:38:49;;;;;;;26.87;17.63;;;;;;;5.76;86.68;98831.19;5073639;28;20618;-76
2023/03/08 04:41:18;;;;;;;24.27;17.50;;;;;;;5.81;86.92;98832.50;5073635;28;20663;-73
2023/03/08 04:43:47;;;;;;;25.70;17.33;;;;;;;5.84;86.66;98830.28;5072270;28;20257;-77
2023/03/08 04:46:15;;;;;;;26.67;17.40;;;;;;;5.81;86.26;98832.50;5074075;28;20218;-73
2023/03/08 04:48:42;;;;;;;24.73;16.43;;;;;;;5.81;86.31;98832.50;5073324;28;20192;-78
2023/03/08 04:51:10;;;;;;;29.47;16.53;;;;;;;5.81;86.08;98827.22;5056903;28;20228;-80
2023/03/08 04:53:38;;;;;;;26.33;16.73;;;;;;;5.87;86.19;98834.41;5053591;28;20250;-78
2023/03/08 04:56:05;;;;;;;23.77;13.73;;;;;;;5.93;87.91;98831.03;5053106;28;20259;-76
2023/03/08 04:58:34;;;;;;;24.73;17.17;;;;;;;6.04;87.28;98817.41;5053210;28;20221;-80
2023/03/08 05:01:09;;;;;;;24.33;15.90;;;;;;;6.11;85.76;98823.56;5052856;28;20282;-80
2023/03/08 05:03:35;;;;;;;27.50;16.63;;;;;;;6.18;85.23;98829.72;5052565;28;20181;-80
2023/03/08 05:06:02;;;;;;;29.80;16.40;;;;;;;6.18;85.38;98835.00;5050943;28;20197;-80
2023/03/08 05:08:29;;;;;;;23.87;15.37;;;;;;;6.28;85.50;98840.81;5050585;28;20242;-77
2023/03/08 05:10:57;;;;;;;29.80;15.33;;;;;;;6.48;84.53;98841.84;5051751;28;20205;-80
2023/03/08 05:13:24;;;;;;;41.40;15.13;;;;;;;6.80;84.02;98844.03;5057654;28;20279;-73
2023/03/08 05:15:52;;;;;;;26.73;14.70;;;;;;;7.04;82.82;98846.28;5065490;28;20205;-72
2023/03/08 05:18:19;;;;;;;29.27;16.00;;;;;;;7.32;81.76;98841.88;5048820;28;20594;-73
2023/03/08 05:20:53;;;;;;;24.27;14.47;;;;;;;7.76;79.25;98853.78;5050244;28;20660;-73
2023/03/08 05:23:20;;;;;;;25.93;14.67;;;;;;;8.11;78.79;98852.78;5049482;28;20188;-74
2023/03/08 05:25:47;;;;;;;25.77;15.10;;;;;;;8.37;75.77;98863.50;5051110;28;20193;-76
2023/03/08 05:28:14;;;;;;;24.43;14.57;;;;;;;8.66;73.94;98867.69;5051284;28;20240;-75
2023/03/08 05:30:41;;;;;;;23.53;15.43;;;;;;;8.82;74.68;98869.97;5051942;28;20196;-76
2023/03/08 05:33:09;;;;;;;20.40;13.50;;;;;;;9.08;72.27;98876.16;5049714;28;20200;-77
2023/03/08 05:35:36;;;;;;;28.40;15.07;;;;;;;9.41;72.14;98865.56;5049833;28;20200;-79
2023/03/08 05:38:03;;;;;;;25.37;13.00;;;;;;;9.58;70.36;98866.78;5049885;28;20353;-77
2023/03/08 05:40:30;;;;;;;19.40;14.00;;;;;;;9.53;70.55;98871.88;5049305;28;20195;-78
2023/03/08 05:42:57;;;;;;;25.43;15.57;;;;;;;9.64;70.48;98877.38;5049402;28;20184;-76
2023/03/08 05:45:24;;;;;;;213.13;29.93;;;;;;;9.87;69.12;98883.09;5050625;28;20193;-74
2023/03/08 05:47:50;;;;;;;59.03;18.40;;;;;;;10.10;69.33;98880.00;5051489;28;20226;-75
2023/03/08 05:50:19;;;;;;;34.93;18.27;;;;;;;10.35;67.54;98887.09;5050656;28;20672;-79
2023/03/08 05:52:46;;;;;;;21.70;14.93;;;;;;;10.99;66.04;98905.59;5051157;28;20199;-78
2023/03/08 05:55:12;;;;;;;23.40;13.93;;;;;;;11.46;64.54;98914.91;5049493;28;20512;-76
2023/03/08 05:57:39;;;;;;;28.67;12.80;;;;;;;11.93;62.83;98920.50;5047258;28;20629;-82
2023/03/08 06:00:07;;;;;;;12.47;11.17;;;;;;;12.26;61.89;98926.34;5051018;28;20228;-77
2023/03/08 06:02:34;;;;;;;23.93;11.40;;;;;;;12.28;61.84;98929.56;5051365;28;20664;-82
2023/03/08 06:05:01;;;;;;;22.00;11.87;;;;;;;12.56;62.72;98924.56;5031020;28;20202;-79
2023/03/08 06:07:29;;;;;;;15.33;11.10;;;;;;;12.60;61.28;98931.06;5035708;28;20211;-77
2023/03/08 06:09:56;;;;;;;35.70;12.20;;;;;;;12.95;58.47;98937.41;5050828;28;20206;-76
2023/03/08 06:12:22;;;;;;;21.43;11.03;;;;;;;13.42;56.70;98949.94;5052252;28;20264;-80
2023/03/08 06:14:49;;;;;;;19.77;12.27;;;;;;;13.60;54.50;98930.38;5069886;28;20233;-81
2023/03/08 06:17:16;;;;;;;17.87;10.97;;;;;;;13.79;55.96;98922.03;5053045;28;20224;-81
2023/03/08 06:19:42;;;;;;;28.13;10.80;;;;;;;14.24;54.27;98922.31;5070773;28;20261;-78
2023/03/08 06:22:12;;;;;;;108.47;16.23;;;;;;;14.30;52.41;98926.75;5071991;28;20257;-81
2023/03/08 06:24:41;;;;;;;30.07;10.67;;;;;;;14.32;54.27;98922.78;5070964;28;20200;-83
2023/03/08 06:27:07;;;;;;;27.53;9.73;;;;;;;14.23;52.77;98916.19;5066060;28;20196;-83
2023/03/08 06:29:34;;;;;;;15.57;8.43;;;;;;;14.21;54.84;98918.25;5068341;28;20626;-82
2023/03/08 06:32:01;;;;;;;9.80;8.00;;;;;;;14.50;50.70;98927.97;5070487;28;20249;-83
2023/03/08 06:34:27;;;;;;;12.87;9.47;;;;;;;14.50;50.54;98933.34;5071041;28;20249;-86
2023/03/08 06:36:58;;;;;;;11.57;8.27;;;;;;;14.70;50.88;98932.97;5063814;28;20220;-84
2023/03/08 06:39:25;;;;;;;9.30;8.50;;;;;;;14.35;49.90;98943.72;5051144;28;20641;-81
2023/03/08 06:41:53;;;;;;;9.37;8.33;;;;;;;14.06;51.12;98939.25;5050535;28;20664;-79
2023/03/08 06:44:20;;;;;;;9.80;8.80;;;;;;;13.89;51.54;98951.63;5052131;28;20193;-87
2023/03/08 06:46:47;;;;;;;9.77;8.77;;;;;;;13.92;54.47;98950.38;5057782;28;20249;-73
2023/03/08 06:49:13;;;;;;;12.63;9.60;;;;;;;13.88;54.01;98955.38;5074482;28;20610;-72
2023/03/08 06:51:40;;;;;;;14.27;10.73;;;;;;;14.76;56.69;98948.06;5074882;28;20208;-74
2023/03/08 06:54:07;;;;;;;11.60;8.87;;;;;;;15.94;60.44;98953.25;5065561;28;20200;-77
2023/03/08 06:56:34;;;;;;;11.60;10.50;;;;;;;16.80;52.54;98967.94;5054208;28;20220;-75
2023/03/08 06:59:02;;;;;;;15.17;11.50;;;;;;;16.65;45.79;98975.81;5054398;28;20224;-73
2023/03/08 07:01:29;;;;;;;18.67;10.97;;;;;;;17.01;44.94;98972.50;5056051;28;20859;-72
2023/03/08 07:03:55;;;;;;;12.13;8.77;;;;;;;17.25;52.25;98960.44;5054042;28;20192;-73
2023/03/08 07:06:22;;;;;;;26.83;11.30;;;;;;;18.13;48.59;98976.94;5053847;28;20193;-71
2023/03/08 07:08:49;;;;;;;16.37;9.17;;;;;;;19.16;44.28;98977.03;5053177;28;20210;-72
2023/03/08 07:11:15;;;;;;;14.20;9.10;;;;;;;19.88;40.03;98972.38;5055003;28;20255;-72
2023/03/08 07:13:42;;;;;;;13.93;9.47;;;;;;;19.91;37.07;98974.53;5054617;28;20197;-74
2023/03/08 07:16:12;;;;;;;31.40;8.83;;;;;;;19.51;37.21;98967.19;5054305;28;20196;-77
2023/03/08 07:18:39;;;;;;;23.37;9.10;;;;;;;19.21;37.67;98967.09;5055117;28;20280;-77
2023/03/08 07:21:06;;;;;;;13.70;7.67;;;;;;;18.67;38.14;98973.03;5053938;28;20267;-77
2023/03/08 07:23:33;;;;;;;8.80;7.82;;;;;;;18.28;39.49;98979.72;5059235;28;20445;-71
2023/03/08 07:26:03;;;;;;;10.77;7.40;;;;;;;18.87;44.85;98965.06;5073970;28;20196;-72
2023/03/08 07:28:30;;;;;;;32.90;8.97;;;;;;;19.64;38.50;98973.97;5065762;28;20194;-71
2023/03/08 07:30:57;;;;;;;15.23;8.20;;;;;;;20.16;36.08;98979.97;5054036;28;20642;-71
2023/03/08 07:33:25;;;;;;;11.30;7.60;;;;;;;20.69;35.25;98973.16;5052902;28;20193;-72
2023/03/08 07:35:52;;;;;;;9.77;6.57;;;;;;;20.31;36.11;98963.78;5054182;28;20189;-70
2023/03/08 07:38:19;;;;;;;12.37;7.07;;;;;;;20.31;38.33;98964.56;5053545;28;20223;-70
2023/03/08 07:40:45;;;;;;;17.20;7.60;;;;;;;20.71;37.27;98971.00;5054287;28;20626;-71
2023/03/08 07:43:12;;;;;;;19.43;9.30;;;;;;;21.00;34.79;98978.22;5054180;28;20278;-71
2023/03/08 07:45:39;;;;;;;13.07;7.17;;;;;;;21.27;36.05;98969.75;5053481;28;20246;-71
2023/03/08 07:48:06;;;;;;;60.03;10.50;;;;;;;21.65;33.67;98975.22;5054093;28;20284;-69
2023/03/08 07:50:34;;;;;;;24.80;7.37;;;;;;;21.84;34.48;98959.16;5053730;28;20262;-70
2023/03/08 07:53:03;;;;;;;14.53;7.80;;;;;;;21.34;33.30;98965.66;5053345;28;20259;-71
2023/03/08 07:55:30;;;;;;;52.73;9.20;;;;;;;20.99;33.79;98973.88;5070580;28;20230;-68
2023/03/08 07:57:56;;;;;;;8.80;7.87;;;;;;;20.69;34.53;98962.38;5069771;28;20266;-68
2023/03/08 08:00:23;;;;;;;21.73;7.10;;;;;;;20.81;37.53;98960.97;5053814;28;20616;-67
2023/03/08 08:02:52;;;;;;;10.43;8.10;;;;;;;20.85;34.11;98966.63;5053006;28;20739;-68
2023/03/08 08:05:21;;;;;;;20.83;7.27;;;;;;;20.44;35.39;98952.41;5052601;28;20692;-78
2023/03/08 08:07:50;;;;;;;36.20;8.13;;;;;;;20.30;34.93;98964.88;5070403;28;20258;-76
2023/03/08 08:10:17;;;;;;;16.17;7.17;;;;;;;19.97;34.93;98950.00;5072423;28;20709;-78
2023/03/08 08:12:44;;;;;;;7.50;6.57;;;;;;;19.83;35.66;98953.50;5067751;28;20266;-74
2023/03/08 08:15:11;;;;;;;8.57;6.90;;;;;;;19.70;36.12;98959.41;5054499;28;20282;-73
2023/03/08 08:17:38;;;;;;;20.27;8.77;;;;;;;19.65;36.16;98951.34;5051778;28;20228;-78
2023/03/08 08:20:06;;;;;;;19.33;7.10;;;;;;;20.09;35.90;98963.22;5053529;28;20275;-73
2023/03/08 08:22:35;;;;;;;17.33;7.60;;;;;;;20.48;35.16;98948.09;5052864;28;20304;-75
2023/03/08 08:25:04;;;;;;;36.73;13.63;;;;;;;20.47;34.95;98954.59;5060258;28;20512;-80
2023/03/08 08:27:31;;;;;;;27.60;9.03;;;;;;;20.32;35.36;98957.28;5073801;28;20257;-79
2023/03/08 08:29:58;;;;;;;15.23;7.87;;;;;;;20.50;35.28;98954.03;5072287;28;20265;-76
2023/03/08 08:32:25;;;;;;;8.87;7.13;;;;;;;20.83;34.45;98964.22;5071751;28;20207;-69
2023/03/08 08:34:51;;;;;;;11.13;7.47;;;;;;;21.00;33.56;98959.31;5070267;28;20246;-72
2023/03/08 08:37:18;;;;;;;13.17;7.17;;;;;;;21.28;33.61;98964.06;5072463;28;20230;-71
2023/03/08 08:39:45;;;;;;;36.90;8.50;;;;;;;21.41;33.47;98958.06;5071235;28;20188;-70
2023/03/08 08:42:13;;;;;;;53.43;9.50;;;;;;;21.61;32.90;98968.75;5072574;28;20195;-69
2023/03/08 08:44:39;;;;;;;16.27;7.50;;;;;;;21.46;33.24;98968.81;5050051;28;20661;-70
2023/03/08 08:47:06;;;;;;;8.67;6.87;;;;;;;21.34;33.53;98971.06;5052238;28;20200;-69
2023/03/08 08:49:34;;;;;;;8.53;6.93;;;;;;;21.49;33.30;98970.16;5053350;28;20255;-69
2023/03/08 08:52:01;;;;;;;6.00;5.50;;;;;;;21.38;32.86;98957.78;5061816;28;20733;-70
2023/03/08 08:54:27;;;;;;;16.90;6.17;;;;;;;21.59;32.85;98962.78;5072303;28;20191;-71
2023/03/08 08:56:54;;;;;;;12.00;5.20;;;;;;;21.53;33.11;98960.41;5071804;28;20192;-69
2023/03/08 08:59:22;;;;;;;7.57;5.17;;;;;;;21.69;32.21;98965.44;5059976;28;20236;-70
2023/03/08 09:01:49;;;;;;;13.77;6.30;;;;;;;21.69;32.95;98951.94;5049785;28;20660;-71
2023/03/08 09:04:16;;;;;;;7.67;4.60;;;;;;;21.35;32.88;98956.44;5051153;28;20626;-71
2023/03/08 09:06:43;;;;;;;16.33;5.17;;;;;;;21.37;33.37;98948.88;5050793;28;20566;-69
2023/03/08 09:09:10;;;;;;;5.07;4.00;;;;;;;21.46;32.07;98958.00;5052157;28;20189;-70
2023/03/08 09:11:37;;;;;;;15.43;4.30;;;;;;;21.28;31.61;98950.56;5051827;28;20228;-70
2023/03/08 09:14:03;;;;;;;22.53;5.07;;;;;;;21.25;31.97;98940.31;5051828;28;20200;-73
2023/03/08 09:16:34;;;;;;;4.70;4.30;;;;;;;21.23;32.62;98930.88;5051619;28;20255;-69
2023/03/08 09:19:02;;;;;;;19.27;4.70;;;;;;;21.30;32.58;98926.75;5052209;28;20692;-76
2023/03/08 09:21:30;;;;;;;6.57;3.67;;;;;;;21.22;32.04;98908.44;5052056;28;20250;-76
2023/03/08 09:24:01;;;;;;;3.73;3.43;;;;;;;21.24;31.66;98927.88;5051407;28;20619;-75
2023/03/08 09:26:29;;;;;;;4.60;3.90;;;;;;;21.24;31.67;98917.09;5051717;28;20189;-74
2023/03/08 09:28:56;;;;;;;7.73;4.37;;;;;;;21.34;31.42;98921.59;5051740;28;20196;-74
2023/03/08 09:31:23;;;;;;;49.07;6.00;;;;;;;21.45;31.14;98912.34;5052937;28;20189;-74
2023/03/08 09:33:51;;;;;;;6.13;4.23;;;;;;;21.64;31.35;98916.81;5064350;28;20192;-74
2023/03/08 09:36:19;;;;;;;11.90;5.33;;;;;;;21.71;31.27;98919.22;5072353;28;20655;-74
2023/03/08 09:38:47;;;;;;;7.90;5.30;;;;;;;21.55;31.70;98918.50;5072497;28;20220;-77
2023/03/08 09:41:31;;;;;;;11.57;6.27;;;;;;;21.77;31.28;98916.22;5067623;28;20192;-76
2023/03/08 09:44:10;;;;;;;16.00;5.73;;;;;;;21.86;30.88;98925.34;5039115;28;20235;-75
2023/03/08 09:46:42;;;;;;;6.03;3.87;;;;;;;21.57;31.26;98931.72;5031021;28;20731;-75
2023/03/08 09:49:16;;;;;;;5.73;4.40;;;;;;;21.40;31.43;98921.28;5031777;28;20247;-76
2023/03/08 09:51:49;;;;;;;10.70;5.13;;;;;;;21.36;32.05;98908.63;5047107;28;20183;-75
2023/03/08 09:54:21;;;;;;;4.90;4.50;;;;;;;21.83;31.33;98917.78;5071679;28;20188;-75
2023/03/08 09:56:50;;;;;;;8.80;4.93;;;;;;;22.21;31.06;98913.41;5070700;28;20652;-76
2023/03/08 09:59:24;;;;;;;10.77;4.23;;;;;;;22.32;29.87;98907.59;5049016;28;20286;-77
2023/03/08 10:02:00;;;;;;;4.97;4.27;;;;;;;22.39;30.24;98902.66;5032501;28;20711;-78
2023/03/08 10:04:44;;;;;;;36.57;7.93;;;;;;;22.48;30.78;98900.97;5061372;28;20191;-77
2023/03/08 10:07:24;;;;;;;28.43;6.43;;;;;;;22.25;30.69;98909.81;5032274;28;20381;-78
2023/03/08 10:10:02;;;;;;;49.90;16.27;;;;;;;22.07;31.03;98907.84;5031620;28;20185;-75
2023/03/08 10:12:39;;;;;;;5.87;4.97;;;;;;;22.18;29.93;98901.25;5031827;28;20185;-78
2023/03/08 10:15:14;;;;;;;14.40;5.57;;;;;;;22.45;29.78;98901.50;5031064;28;20211;-74
2023/03/08 10:17:47;;;;;;;13.97;4.67;;;;;;;22.62;28.99;98898.38;5066748;28;20648;-76
2023/03/08 10:20:21;;;;;;;32.83;6.90;;;;;;;22.65;29.22;98879.66;5070549;28;20556;-76
2023/03/08 10:22:56;;;;;;;9.20;3.90;;;;;;;22.68;28.00;98895.34;5068071;28;20620;-77
2023/03/08 10:25:25;;;;;;;4.60;3.13;;;;;;;22.82;27.98;98888.09;5051452;28;20188;-76
2023/03/08 10:27:54;;;;;;;8.30;4.33;;;;;;;22.88;28.15;98884.25;5050619;28;20205;-77
2023/03/08 10:30:24;;;;;;;11.23;4.20;;;;;;;23.07;27.67;98881.56;5051477;28;20192;-78
2023/03/08 10:32:55;;;;;;;6.00;4.13;;;;;;;23.06;28.03;98880.75;5051477;28;20626;-78
2023/03/08 10:35:33;;;;;;;15.03;4.20;;;;;;;22.96;28.07;98880.91;5050958;28;20204;-75
2023/03/08 10:38:00;;;;;;;4.03;3.10;;;;;;;22.90;27.53;98868.50;5062032;28;20211;-75
2023/03/08 10:40:27;;;;;;;3.83;3.53;;;;;;;23.08;27.27;98862.28;5070336;28;20203;-75
2023/03/08 10:43:04;;;;;;;34.10;4.40;;;;;;;22.99;26.18;98855.91;5051178;28;20247;-76
2023/03/08 10:45:31;;;;;;;5.33;1.73;;;;;;;22.78;25.08;98860.00;5030590;28;20189;-73
2023/03/08 10:48:00;;;;;;;7.90;2.10;;;;;;;22.98;25.80;98857.03;5041611;28;20201;-74
2023/03/08 10:50:28;;;;;;;2.33;2.00;;;;;;;23.25;26.04;98854.53;5051778;28;20259;-74
2023/03/08 10:53:08;;;;;;;2.77;1.70;;;;;;;23.38;24.83;98848.34;5031689;28;20205;-74
2023/03/08 10:55:43;;;;;;;7.03;2.43;;;;;;;23.56;24.94;98847.50;5031899;28;20189;-73
2023/03/08 10:58:28;;;;;;;5.47;2.40;;;;;;;23.74;24.33;98841.25;5036213;28;20266;-74
2023/03/08 11:00:56;;;;;;;10.67;2.57;;;;;;;23.96;24.73;98841.44;5062734;28;20254;-75
2023/03/08 11:03:25;;;;;;;8.10;2.13;;;;;;;23.92;24.44;98843.13;5057038;28;20244;-73
2023/03/08 11:05:54;;;;;;;4.47;2.40;;;;;;;23.92;24.72;98835.00;5059680;28;20265;-73
2023/03/08 11:08:24;;;;;;;10.33;2.40;;;;;;;23.84;24.82;98832.94;5051787;28;20194;-76
2023/03/08 11:11:04;;;;;;;15.57;2.80;;;;;;;23.97;24.16;98821.34;5051336;28;20232;-75
2023/03/08 11:13:34;;;;;;;2.07;1.80;;;;;;;23.68;23.97;98812.59;5051613;28;20242;-77
2023/03/08 11:16:17;;;;;;;6.57;2.00;;;;;;;23.78;24.36;98812.44;5050892;28;20277;-75
2023/03/08 11:18:53;;;;;;;291.53;20.97;;;;;;;23.85;24.55;98812.06;5041428;28;20211;-73
2023/03/08 11:21:29;;;;;;;12.30;2.50;;;;;;;23.51;25.26;98811.53;5052163;28;20186;-75
2023/03/08 11:24:09;;;;;;;32.87;2.90;;;;;;;22.99;25.33;98809.88;5052752;28;20181;-78
2023/03/08 11:26:43;;;;;;;4.90;2.07;;;;;;;22.85;25.05;98802.75;5048743;28;20182;-74
2023/03/08 11:29:26;;;;;;;4.00;2.37;;;;;;;22.63;25.69;98792.50;5049418;28;20189;-79
2023/03/08 11:32:05;;;;;;;7.87;1.90;;;;;;;22.51;26.27;98791.31;5034867;28;20243;-76